sensor_id;sensor_type;location;lat;lon;timestamp;P1;durP1;ratioP1;P2;durP2;ratioP2
67352;SDS011;54238;52.278;21.056;2023-12-28T00:01:50;42.80;;;20.20;;
67352;SDS011;54238;52.278;21.056;2023-12-28T00:04:17;45.10;;;18.70;;
67352;SDS011;54238;52.278;21.056;2023-12-28T00:06:47;54.00;;;23.60;;
67352;SDS011;54238;52.278;21.056;2023-12-28T00:09:14;43.60;;;20.20;;
67352;SDS011;54238;52.278;21.056;2023-12-28T00:11:40;59.20;;;26.00;;
67352;SDS011;54238;52.278;21.056;2023-12-28T00:14:12;43.00;;;19.80;;
67352;SDS011;54238;52.278;21.056;2023-12-28T00:16:39;46.30;;;21.50;;
67352;SDS011;54238;52.278;21.056;2023-12-28T00:19:06;51.30;;;23.20;;
67352;SDS011;54238;52.278;21.056;2023-12-28T00:21:34;41.40;;;20.70;;
67352;SDS011;54238;52.278;21.056;2023-12-28T00:24:03;43.50;;;20.20;;
67352;SDS011;54238;52.278;21.056;2023-12-28T00:26:33;44.90;;;22.00;;
67352;SDS011;54238;52.278;21.056;2023-12-28T00:29:00;54.80;;;23.10;;
67352;SDS011;54238;52.278;21.056;2023-12-28T00:31:27;51.80;;;23.90;;
67352;SDS011;54238;52.278;21.056;2023-12-28T00:33:56;47.90;;;23.70;;
67352;SDS011;54238;52.278;21.056;2023-12-28T00:36:23;52.00;;;25.20;;
67352;SDS011;54238;52.278;21.056;2023-12-28T00:38:50;46.00;;;21.20;;
67352;SDS011;54238;52.278;21.056;2023-12-28T00:41:20;54.70;;;24.30;;
67352;SDS011;54238;52.278;21.056;2023-12-28T00:43:49;51.40;;;23.60;;
67352;SDS011;54238;52.278;21.056;2023-12-28T00:46:24;51.30;;;25.20;;
67352;SDS011;54238;52.278;21.056;2023-12-28T00:48:51;41.80;;;20.10;;
67352;SDS011;54238;52.278;21.056;2023-12-28T00:51:20;45.40;;;20.60;;
67352;SDS011;54238;52.278;21.056;2023-12-28T00:53:52;48.10;;;23.10;;
67352;SDS011;54238;52.278;21.056;2023-12-28T00:56:19;46.70;;;21.70;;
67352;SDS011;54238;52.278;21.056;2023-12-28T00:58:48;41.90;;;20.60;;
67352;SDS011;54238;52.278;21.056;2023-12-28T01:01:18;40.40;;;20.80;;
67352;SDS011;54238;52.278;21.056;2023-12-28T01:03:45;38.40;;;17.20;;
67352;SDS011;54238;52.278;21.056;2023-12-28T01:06:19;40.90;;;18.80;;
67352;SDS011;54238;52.278;21.056;2023-12-28T01:08:46;47.20;;;19.50;;
67352;SDS011;54238;52.278;21.056;2023-12-28T01:11:13;42.10;;;18.10;;
67352;SDS011;54238;52.278;21.056;2023-12-28T01:13:40;51.40;;;20.30;;
67352;SDS011;54238;52.278;21.056;2023-12-28T01:16:09;49.20;;;20.80;;
67352;SDS011;54238;52.278;21.056;2023-12-28T01:18:38;44.90;;;20.00;;
67352;SDS011;54238;52.278;21.056;2023-12-28T01:21:07;45.20;;;19.40;;
67352;SDS011;54238;52.278;21.056;2023-12-28T01:23:39;53.70;;;21.50;;
67352;SDS011;54238;52.278;21.056;2023-12-28T01:26:12;45.10;;;22.60;;
67352;SDS011;54238;52.278;21.056;2023-12-28T01:28:46;47.20;;;21.60;;
67352;SDS011;54238;52.278;21.056;2023-12-28T01:31:16;45.10;;;20.60;;
67352;SDS011;54238;52.278;21.056;2023-12-28T01:33:46;39.20;;;17.60;;
67352;SDS011;54238;52.278;21.056;2023-12-28T01:36:20;44.30;;;19.90;;
67352;SDS011;54238;52.278;21.056;2023-12-28T01:38:51;43.90;;;19.10;;
67352;SDS011;54238;52.278;21.056;2023-12-28T01:41:20;35.30;;;16.30;;
67352;SDS011;54238;52.278;21.056;2023-12-28T01:43:50;40.10;;;17.30;;
67352;SDS011;54238;52.278;21.056;2023-12-28T01:46:21;45.10;;;19.00;;
67352;SDS011;54238;52.278;21.056;2023-12-28T01:48:53;32.60;;;16.30;;
67352;SDS011;54238;52.278;21.056;2023-12-28T01:51:23;35.80;;;16.70;;
67352;SDS011;54238;52.278;21.056;2023-12-28T01:53:51;34.90;;;15.70;;
67352;SDS011;54238;52.278;21.056;2023-12-28T01:56:20;37.40;;;17.60;;
67352;SDS011;54238;52.278;21.056;2023-12-28T01:58:53;33.10;;;16.30;;
67352;SDS011;54238;52.278;21.056;2023-12-28T02:01:20;32.10;;;14.50;;
67352;SDS011;54238;52.278;21.056;2023-12-28T02:03:51;29.80;;;14.60;;
67352;SDS011;54238;52.278;21.056;2023-12-28T02:06:18;41.40;;;16.90;;
67352;SDS011;54238;52.278;21.056;2023-12-28T02:08:47;30.30;;;14.00;;
67352;SDS011;54238;52.278;21.056;2023-12-28T02:11:20;30.70;;;14.40;;
67352;SDS011;54238;52.278;21.056;2023-12-28T02:13:49;33.50;;;15.80;;
67352;SDS011;54238;52.278;21.056;2023-12-28T02:16:28;31.80;;;13.50;;
67352;SDS011;54238;52.278;21.056;2023-12-28T02:19:17;32.80;;;13.40;;
67352;SDS011;54238;52.278;21.056;2023-12-28T02:21:53;32.90;;;13.60;;
67352;SDS011;54238;52.278;21.056;2023-12-28T02:24:21;32.80;;;13.90;;
67352;SDS011;54238;52.278;21.056;2023-12-28T02:26:51;38.10;;;14.10;;
67352;SDS011;54238;52.278;21.056;2023-12-28T02:29:25;32.80;;;14.80;;
67352;SDS011;54238;52.278;21.056;2023-12-28T02:32:03;31.40;;;13.90;;
67352;SDS011;54238;52.278;21.056;2023-12-28T02:34:37;30.30;;;14.70;;
67352;SDS011;54238;52.278;21.056;2023-12-28T02:37:12;31.10;;;12.60;;
67352;SDS011;54238;52.278;21.056;2023-12-28T02:39:44;30.60;;;13.10;;
67352;SDS011;54238;52.278;21.056;2023-12-28T02:42:15;36.10;;;13.30;;
67352;SDS011;54238;52.278;21.056;2023-12-28T02:44:52;31.50;;;13.60;;
67352;SDS011;54238;52.278;21.056;2023-12-28T02:47:24;21.20;;;9.80;;
67352;SDS011;54238;52.278;21.056;2023-12-28T02:49:54;25.10;;;12.70;;
67352;SDS011;54238;52.278;21.056;2023-12-28T02:52:21;35.00;;;13.90;;
67352;SDS011;54238;52.278;21.056;2023-12-28T02:54:50;33.90;;;12.40;;
67352;SDS011;54238;52.278;21.056;2023-12-28T02:57:17;30.00;;;12.40;;
67352;SDS011;54238;52.278;21.056;2023-12-28T02:59:47;26.40;;;11.40;;
67352;SDS011;54238;52.278;21.056;2023-12-28T03:02:16;24.40;;;9.80;;
67352;SDS011;54238;52.278;21.056;2023-12-28T03:04:43;26.20;;;12.30;;
67352;SDS011;54238;52.278;21.056;2023-12-28T03:07:10;34.30;;;12.30;;
67352;SDS011;54238;52.278;21.056;2023-12-28T03:09:39;23.80;;;12.00;;
67352;SDS011;54238;52.278;21.056;2023-12-28T03:12:11;28.20;;;11.80;;
67352;SDS011;54238;52.278;21.056;2023-12-28T03:14:38;27.30;;;11.70;;
67352;SDS011;54238;52.278;21.056;2023-12-28T03:17:05;25.50;;;10.50;;
67352;SDS011;54238;52.278;21.056;2023-12-28T03:19:37;26.70;;;12.20;;
67352;SDS011;54238;52.278;21.056;2023-12-28T03:22:04;32.50;;;14.10;;
67352;SDS011;54238;52.278;21.056;2023-12-28T03:24:31;19.60;;;10.00;;
67352;SDS011;54238;52.278;21.056;2023-12-28T03:26:58;30.90;;;12.60;;
67352;SDS011;54238;52.278;21.056;2023-12-28T03:29:28;23.30;;;10.30;;
67352;SDS011;54238;52.278;21.056;2023-12-28T03:31:57;22.70;;;9.90;;
67352;SDS011;54238;52.278;21.056;2023-12-28T03:34:30;23.10;;;9.90;;
67352;SDS011;54238;52.278;21.056;2023-12-28T03:36:57;22.40;;;9.60;;
67352;SDS011;54238;52.278;21.056;2023-12-28T03:39:24;33.10;;;12.30;;
67352;SDS011;54238;52.278;21.056;2023-12-28T03:41:51;23.30;;;10.70;;
67352;SDS011;54238;52.278;21.056;2023-12-28T03:44:22;26.60;;;10.50;;
67352;SDS011;54238;52.278;21.056;2023-12-28T03:46:52;20.70;;;9.10;;
67352;SDS011;54238;52.278;21.056;2023-12-28T03:49:19;22.60;;;10.60;;
67352;SDS011;54238;52.278;21.056;2023-12-28T03:51:49;30.80;;;11.90;;
67352;SDS011;54238;52.278;21.056;2023-12-28T03:54:18;18.40;;;8.50;;
67352;SDS011;54238;52.278;21.056;2023-12-28T03:56:46;21.40;;;10.10;;
67352;SDS011;54238;52.278;21.056;2023-12-28T03:59:17;30.50;;;10.30;;
67352;SDS011;54238;52.278;21.056;2023-12-28T04:01:44;24.70;;;10.10;;
67352;SDS011;54238;52.278;21.056;2023-12-28T04:04:11;25.00;;;9.50;;
67352;SDS011;54238;52.278;21.056;2023-12-28T04:06:40;24.60;;;9.90;;
67352;SDS011;54238;52.278;21.056;2023-12-28T04:09:14;22.60;;;9.50;;
67352;SDS011;54238;52.278;21.056;2023-12-28T04:11:46;25.10;;;9.20;;
67352;SDS011;54238;52.278;21.056;2023-12-28T04:14:33;21.80;;;8.80;;
67352;SDS011;54238;52.278;21.056;2023-12-28T04:17:22;20.00;;;9.10;;
67352;SDS011;54238;52.278;21.056;2023-12-28T04:20:13;18.80;;;8.00;;
67352;SDS011;54238;52.278;21.056;2023-12-28T04:23:00;29.70;;;10.30;;
67352;SDS011;54238;52.278;21.056;2023-12-28T04:25:33;20.60;;;9.20;;
67352;SDS011;54238;52.278;21.056;2023-12-28T04:28:19;29.00;;;10.00;;
67352;SDS011;54238;52.278;21.056;2023-12-28T04:31:11;23.40;;;9.30;;
67352;SDS011;54238;52.278;21.056;2023-12-28T04:33:40;18.90;;;8.60;;
67352;SDS011;54238;52.278;21.056;2023-12-28T04:36:12;23.00;;;9.30;;
67352;SDS011;54238;52.278;21.056;2023-12-28T04:38:42;26.30;;;9.40;;
67352;SDS011;54238;52.278;21.056;2023-12-28T04:41:12;22.00;;;8.90;;
67352;SDS011;54238;52.278;21.056;2023-12-28T04:43:44;25.90;;;10.20;;
67352;SDS011;54238;52.278;21.056;2023-12-28T04:46:14;19.90;;;9.10;;
67352;SDS011;54238;52.278;21.056;2023-12-28T04:48:43;23.70;;;9.10;;
67352;SDS011;54238;52.278;21.056;2023-12-28T04:51:10;30.80;;;11.20;;
67352;SDS011;54238;52.278;21.056;2023-12-28T04:53:39;26.60;;;9.70;;
67352;SDS011;54238;52.278;21.056;2023-12-28T04:58:38;23.80;;;9.90;;
67352;SDS011;54238;52.278;21.056;2023-12-28T05:01:10;28.00;;;11.50;;
67352;SDS011;54238;52.278;21.056;2023-12-28T05:03:37;21.50;;;8.50;;
67352;SDS011;54238;52.278;21.056;2023-12-28T05:06:04;24.90;;;9.70;;
67352;SDS011;54238;52.278;21.056;2023-12-28T05:08:31;23.00;;;8.50;;
67352;SDS011;54238;52.278;21.056;2023-12-28T05:11:00;23.70;;;11.30;;
67352;SDS011;54238;52.278;21.056;2023-12-28T05:13:27;21.80;;;9.10;;
67352;SDS011;54238;52.278;21.056;2023-12-28T05:15:57;25.50;;;9.90;;
67352;SDS011;54238;52.278;21.056;2023-12-28T05:18:27;22.90;;;9.70;;
67352;SDS011;54238;52.278;21.056;2023-12-28T05:20:57;26.50;;;10.20;;
67352;SDS011;54238;52.278;21.056;2023-12-28T05:23:26;25.20;;;9.60;;
67352;SDS011;54238;52.278;21.056;2023-12-28T05:25:53;22.50;;;9.60;;
67352;SDS011;54238;52.278;21.056;2023-12-28T05:28:23;30.60;;;11.80;;
67352;SDS011;54238;52.278;21.056;2023-12-28T05:30:53;22.10;;;9.20;;
67352;SDS011;54238;52.278;21.056;2023-12-28T05:33:22;25.50;;;8.60;;
67352;SDS011;54238;52.278;21.056;2023-12-28T05:35:54;26.30;;;10.70;;
67352;SDS011;54238;52.278;21.056;2023-12-28T05:38:21;27.80;;;10.30;;
67352;SDS011;54238;52.278;21.056;2023-12-28T05:40:51;27.60;;;10.60;;
67352;SDS011;54238;52.278;21.056;2023-12-28T05:43:20;26.80;;;10.70;;
67352;SDS011;54238;52.278;21.056;2023-12-28T05:45:52;19.50;;;8.40;;
67352;SDS011;54238;52.278;21.056;2023-12-28T05:48:21;25.70;;;9.90;;
67352;SDS011;54238;52.278;21.056;2023-12-28T05:50:51;25.40;;;10.00;;
67352;SDS011;54238;52.278;21.056;2023-12-28T05:53:18;22.40;;;9.60;;
67352;SDS011;54238;52.278;21.056;2023-12-28T05:55:45;22.40;;;9.30;;
67352;SDS011;54238;52.278;21.056;2023-12-28T05:58:19;18.60;;;8.20;;
67352;SDS011;54238;52.278;21.056;2023-12-28T06:00:48;20.50;;;9.70;;
67352;SDS011;54238;52.278;21.056;2023-12-28T06:03:17;25.70;;;10.60;;
67352;SDS011;54238;52.278;21.056;2023-12-28T06:05:44;26.90;;;11.30;;
67352;SDS011;54238;52.278;21.056;2023-12-28T06:08:14;21.40;;;9.50;;
67352;SDS011;54238;52.278;21.056;2023-12-28T06:10:46;19.10;;;8.80;;
67352;SDS011;54238;52.278;21.056;2023-12-28T06:13:13;26.30;;;10.40;;
67352;SDS011;54238;52.278;21.056;2023-12-28T06:15:40;17.10;;;7.80;;
67352;SDS011;54238;52.278;21.056;2023-12-28T06:18:10;21.90;;;11.00;;
67352;SDS011;54238;52.278;21.056;2023-12-28T06:20:36;22.10;;;9.30;;
67352;SDS011;54238;52.278;21.056;2023-12-28T06:23:03;22.10;;;11.40;;
67352;SDS011;54238;52.278;21.056;2023-12-28T06:25:33;27.30;;;10.40;;
67352;SDS011;54238;52.278;21.056;2023-12-28T06:28:02;19.80;;;9.30;;
67352;SDS011;54238;52.278;21.056;2023-12-28T06:30:33;24.90;;;9.70;;
67352;SDS011;54238;52.278;21.056;2023-12-28T06:33:01;24.60;;;10.50;;
67352;SDS011;54238;52.278;21.056;2023-12-28T06:35:28;23.70;;;9.30;;
67352;SDS011;54238;52.278;21.056;2023-12-28T06:37:54;25.10;;;10.40;;
67352;SDS011;54238;52.278;21.056;2023-12-28T06:40:21;25.00;;;10.40;;
67352;SDS011;54238;52.278;21.056;2023-12-28T06:42:48;22.40;;;10.50;;
67352;SDS011;54238;52.278;21.056;2023-12-28T06:45:15;23.80;;;10.50;;
67352;SDS011;54238;52.278;21.056;2023-12-28T06:47:43;22.00;;;11.00;;
67352;SDS011;54238;52.278;21.056;2023-12-28T06:50:10;24.40;;;9.80;;
67352;SDS011;54238;52.278;21.056;2023-12-28T06:52:40;22.10;;;10.80;;
67352;SDS011;54238;52.278;21.056;2023-12-28T06:55:10;23.90;;;9.90;;
67352;SDS011;54238;52.278;21.056;2023-12-28T06:57:37;27.90;;;11.10;;
67352;SDS011;54238;52.278;21.056;2023-12-28T07:00:11;25.10;;;10.90;;
67352;SDS011;54238;52.278;21.056;2023-12-28T07:02:41;25.20;;;10.10;;
67352;SDS011;54238;52.278;21.056;2023-12-28T07:05:08;20.60;;;9.30;;
67352;SDS011;54238;52.278;21.056;2023-12-28T07:07:35;22.10;;;9.70;;
67352;SDS011;54238;52.278;21.056;2023-12-28T07:10:06;28.80;;;11.50;;
67352;SDS011;54238;52.278;21.056;2023-12-28T07:12:36;26.00;;;10.00;;
67352;SDS011;54238;52.278;21.056;2023-12-28T07:15:05;22.70;;;10.40;;
67352;SDS011;54238;52.278;21.056;2023-12-28T07:17:33;29.40;;;11.90;;
67352;SDS011;54238;52.278;21.056;2023-12-28T07:20:00;23.80;;;9.60;;
67352;SDS011;54238;52.278;21.056;2023-12-28T07:22:32;24.80;;;11.50;;
67352;SDS011;54238;52.278;21.056;2023-12-28T07:25:05;21.90;;;10.20;;
67352;SDS011;54238;52.278;21.056;2023-12-28T07:27:34;25.40;;;10.20;;
67352;SDS011;54238;52.278;21.056;2023-12-28T07:30:04;23.60;;;10.10;;
67352;SDS011;54238;52.278;21.056;2023-12-28T07:32:34;25.60;;;10.60;;
67352;SDS011;54238;52.278;21.056;2023-12-28T07:35:01;21.70;;;10.40;;
67352;SDS011;54238;52.278;21.056;2023-12-28T07:37:30;20.90;;;9.40;;
67352;SDS011;54238;52.278;21.056;2023-12-28T07:39:58;18.20;;;7.40;;
67352;SDS011;54238;52.278;21.056;2023-12-28T07:42:27;21.60;;;9.20;;
67352;SDS011;54238;52.278;21.056;2023-12-28T07:44:56;23.20;;;11.30;;
67352;SDS011;54238;52.278;21.056;2023-12-28T07:47:26;28.20;;;11.50;;
67352;SDS011;54238;52.278;21.056;2023-12-28T07:49:55;21.00;;;8.80;;
67352;SDS011;54238;52.278;21.056;2023-12-28T07:52:24;28.20;;;10.90;;
67352;SDS011;54238;52.278;21.056;2023-12-28T07:54:54;24.80;;;11.50;;
67352;SDS011;54238;52.278;21.056;2023-12-28T07:57:26;25.60;;;11.10;;
67352;SDS011;54238;52.278;21.056;2023-12-28T07:59:55;20.90;;;9.60;;
67352;SDS011;54238;52.278;21.056;2023-12-28T08:02:24;24.20;;;11.30;;
67352;SDS011;54238;52.278;21.056;2023-12-28T08:04:54;26.60;;;11.20;;
67352;SDS011;54238;52.278;21.056;2023-12-28T08:07:23;24.70;;;10.70;;
67352;SDS011;54238;52.278;21.056;2023-12-28T08:09:53;27.60;;;11.40;;
67352;SDS011;54238;52.278;21.056;2023-12-28T08:12:22;28.00;;;11.60;;
67352;SDS011;54238;52.278;21.056;2023-12-28T08:14:54;27.90;;;12.00;;
67352;SDS011;54238;52.278;21.056;2023-12-28T08:17:25;19.00;;;9.10;;
67352;SDS011;54238;52.278;21.056;2023-12-28T08:19:56;17.40;;;9.40;;
67352;SDS011;54238;52.278;21.056;2023-12-28T08:22:26;28.00;;;10.90;;
67352;SDS011;54238;52.278;21.056;2023-12-28T08:24:54;19.10;;;9.10;;
67352;SDS011;54238;52.278;21.056;2023-12-28T08:27:24;20.40;;;10.20;;
67352;SDS011;54238;52.278;21.056;2023-12-28T08:29:53;19.10;;;9.10;;
67352;SDS011;54238;52.278;21.056;2023-12-28T08:32:22;24.60;;;9.80;;
67352;SDS011;54238;52.278;21.056;2023-12-28T08:34:51;21.40;;;10.10;;
67352;SDS011;54238;52.278;21.056;2023-12-28T08:37:20;25.30;;;11.70;;
67352;SDS011;54238;52.278;21.056;2023-12-28T08:39:47;25.50;;;11.40;;
67352;SDS011;54238;52.278;21.056;2023-12-28T08:42:19;24.10;;;11.30;;
67352;SDS011;54238;52.278;21.056;2023-12-28T08:44:46;18.10;;;9.60;;
67352;SDS011;54238;52.278;21.056;2023-12-28T08:47:15;23.30;;;10.50;;
67352;SDS011;54238;52.278;21.056;2023-12-28T08:49:47;20.70;;;10.50;;
67352;SDS011;54238;52.278;21.056;2023-12-28T08:52:19;24.90;;;10.90;;
67352;SDS011;54238;52.278;21.056;2023-12-28T08:54:48;24.40;;;12.40;;
67352;SDS011;54238;52.278;21.056;2023-12-28T08:57:24;19.60;;;10.00;;
67352;SDS011;54238;52.278;21.056;2023-12-28T08:59:51;25.40;;;10.70;;
67352;SDS011;54238;52.278;21.056;2023-12-28T09:02:23;18.40;;;9.90;;
67352;SDS011;54238;52.278;21.056;2023-12-28T09:04:52;22.50;;;9.70;;
67352;SDS011;54238;52.278;21.056;2023-12-28T09:07:19;21.10;;;9.70;;
67352;SDS011;54238;52.278;21.056;2023-12-28T09:09:48;19.70;;;10.80;;
67352;SDS011;54238;52.278;21.056;2023-12-28T09:12:18;23.50;;;11.60;;
67352;SDS011;54238;52.278;21.056;2023-12-28T09:14:47;20.70;;;9.30;;
67352;SDS011;54238;52.278;21.056;2023-12-28T09:17:22;26.60;;;12.40;;
67352;SDS011;54238;52.278;21.056;2023-12-28T09:19:51;23.00;;;10.30;;
67352;SDS011;54238;52.278;21.056;2023-12-28T09:22:18;19.60;;;10.20;;
67352;SDS011;54238;52.278;21.056;2023-12-28T09:24:48;24.30;;;11.20;;
67352;SDS011;54238;52.278;21.056;2023-12-28T09:27:15;28.60;;;12.40;;
67352;SDS011;54238;52.278;21.056;2023-12-28T09:29:42;22.30;;;11.20;;
67352;SDS011;54238;52.278;21.056;2023-12-28T09:32:11;23.30;;;10.40;;
67352;SDS011;54238;52.278;21.056;2023-12-28T09:34:40;22.00;;;9.90;;
67352;SDS011;54238;52.278;21.056;2023-12-28T09:37:11;18.50;;;10.10;;
67352;SDS011;54238;52.278;21.056;2023-12-28T09:39:39;25.20;;;11.70;;
67352;SDS011;54238;52.278;21.056;2023-12-28T09:42:20;20.20;;;10.90;;
67352;SDS011;54238;52.278;21.056;2023-12-28T09:44:59;20.40;;;9.50;;
67352;SDS011;54238;52.278;21.056;2023-12-28T09:47:35;19.50;;;9.50;;
67352;SDS011;54238;52.278;21.056;2023-12-28T09:50:08;26.10;;;9.30;;
67352;SDS011;54238;52.278;21.056;2023-12-28T09:52:35;15.60;;;8.90;;
67352;SDS011;54238;52.278;21.056;2023-12-28T09:55:04;17.30;;;7.80;;
67352;SDS011;54238;52.278;21.056;2023-12-28T09:57:35;20.90;;;7.40;;
67352;SDS011;54238;52.278;21.056;2023-12-28T10:00:06;10.30;;;5.50;;
67352;SDS011;54238;52.278;21.056;2023-12-28T10:02:43;15.60;;;7.70;;
67352;SDS011;54238;52.278;21.056;2023-12-28T10:05:15;15.00;;;6.90;;
67352;SDS011;54238;52.278;21.056;2023-12-28T10:07:47;12.50;;;6.40;;
67352;SDS011;54238;52.278;21.056;2023-12-28T10:10:17;13.60;;;7.20;;
67352;SDS011;54238;52.278;21.056;2023-12-28T10:12:46;15.60;;;7.30;;
67352;SDS011;54238;52.278;21.056;2023-12-28T10:15:18;15.70;;;7.90;;
67352;SDS011;54238;52.278;21.056;2023-12-28T10:17:52;18.90;;;7.50;;
67352;SDS011;54238;52.278;21.056;2023-12-28T10:20:19;14.20;;;7.40;;
67352;SDS011;54238;52.278;21.056;2023-12-28T10:22:53;16.10;;;7.30;;
67352;SDS011;54238;52.278;21.056;2023-12-28T10:25:20;13.40;;;7.70;;
67352;SDS011;54238;52.278;21.056;2023-12-28T10:27:50;17.50;;;8.50;;
67352;SDS011;54238;52.278;21.056;2023-12-28T10:30:22;15.60;;;7.50;;
67352;SDS011;54238;52.278;21.056;2023-12-28T10:32:54;13.00;;;7.00;;
67352;SDS011;54238;52.278;21.056;2023-12-28T10:35:24;17.80;;;8.30;;
67352;SDS011;54238;52.278;21.056;2023-12-28T10:38:00;12.40;;;6.50;;
67352;SDS011;54238;52.278;21.056;2023-12-28T10:40:30;16.30;;;7.90;;
67352;SDS011;54238;52.278;21.056;2023-12-28T10:43:06;14.10;;;7.50;;
67352;SDS011;54238;52.278;21.056;2023-12-28T10:45:39;12.40;;;7.10;;
67352;SDS011;54238;52.278;21.056;2023-12-28T10:48:11;13.50;;;7.10;;
67352;SDS011;54238;52.278;21.056;2023-12-28T10:50:49;16.30;;;7.60;;
67352;SDS011;54238;52.278;21.056;2023-12-28T10:53:38;17.80;;;8.80;;
67352;SDS011;54238;52.278;21.056;2023-12-28T10:56:35;12.30;;;6.20;;
67352;SDS011;54238;52.278;21.056;2023-12-28T11:02:06;13.70;;;6.50;;
67352;SDS011;54238;52.278;21.056;2023-12-28T11:04:51;14.00;;;6.90;;
67352;SDS011;54238;52.278;21.056;2023-12-28T11:07:23;17.90;;;7.90;;
67352;SDS011;54238;52.278;21.056;2023-12-28T11:10:02;15.70;;;7.80;;
67352;SDS011;54238;52.278;21.056;2023-12-28T11:12:35;14.50;;;7.40;;
67352;SDS011;54238;52.278;21.056;2023-12-28T11:15:09;17.00;;;6.30;;
67352;SDS011;54238;52.278;21.056;2023-12-28T11:17:41;17.10;;;7.50;;
67352;SDS011;54238;52.278;21.056;2023-12-28T11:20:10;13.40;;;7.70;;
67352;SDS011;54238;52.278;21.056;2023-12-28T11:22:41;12.00;;;6.00;;
67352;SDS011;54238;52.278;21.056;2023-12-28T11:25:15;16.60;;;6.60;;
67352;SDS011;54238;52.278;21.056;2023-12-28T11:27:45;12.60;;;6.60;;
67352;SDS011;54238;52.278;21.056;2023-12-28T11:30:16;17.10;;;7.50;;
67352;SDS011;54238;52.278;21.056;2023-12-28T11:32:50;16.60;;;7.50;;
67352;SDS011;54238;52.278;21.056;2023-12-28T11:35:34;14.10;;;7.70;;
67352;SDS011;54238;52.278;21.056;2023-12-28T11:38:08;13.80;;;7.20;;
67352;SDS011;54238;52.278;21.056;2023-12-28T11:40:45;14.50;;;6.80;;
67352;SDS011;54238;52.278;21.056;2023-12-28T11:43:18;13.60;;;7.00;;
67352;SDS011;54238;52.278;21.056;2023-12-28T11:45:54;12.90;;;6.50;;
67352;SDS011;54238;52.278;21.056;2023-12-28T11:48:24;15.00;;;8.10;;
67352;SDS011;54238;52.278;21.056;2023-12-28T11:50:59;13.50;;;6.40;;
67352;SDS011;54238;52.278;21.056;2023-12-28T11:53:33;13.90;;;6.90;;
67352;SDS011;54238;52.278;21.056;2023-12-28T11:56:03;10.30;;;5.20;;
67352;SDS011;54238;52.278;21.056;2023-12-28T11:58:40;16.70;;;8.10;;
67352;SDS011;54238;52.278;21.056;2023-12-28T12:01:14;13.50;;;6.80;;
67352;SDS011;54238;52.278;21.056;2023-12-28T12:03:42;12.40;;;7.00;;
67352;SDS011;54238;52.278;21.056;2023-12-28T12:06:19;13.20;;;6.60;;
67352;SDS011;54238;52.278;21.056;2023-12-28T12:08:50;12.70;;;6.40;;
67352;SDS011;54238;52.278;21.056;2023-12-28T12:11:18;14.50;;;6.90;;
67352;SDS011;54238;52.278;21.056;2023-12-28T12:13:51;10.30;;;6.30;;
67352;SDS011;54238;52.278;21.056;2023-12-28T12:16:23;12.50;;;6.40;;
67352;SDS011;54238;52.278;21.056;2023-12-28T12:18:51;13.30;;;7.50;;
67352;SDS011;54238;52.278;21.056;2023-12-28T12:21:20;13.80;;;6.70;;
67352;SDS011;54238;52.278;21.056;2023-12-28T12:23:49;12.60;;;7.20;;
67352;SDS011;54238;52.278;21.056;2023-12-28T12:26:22;14.40;;;6.40;;
67352;SDS011;54238;52.278;21.056;2023-12-28T12:28:50;11.70;;;6.70;;
67352;SDS011;54238;52.278;21.056;2023-12-28T12:31:20;13.80;;;6.00;;
67352;SDS011;54238;52.278;21.056;2023-12-28T12:33:49;10.80;;;6.60;;
67352;SDS011;54238;52.278;21.056;2023-12-28T12:36:21;15.40;;;7.00;;
67352;SDS011;54238;52.278;21.056;2023-12-28T12:38:49;12.10;;;6.90;;
67352;SDS011;54238;52.278;21.056;2023-12-28T12:41:17;17.20;;;7.10;;
67352;SDS011;54238;52.278;21.056;2023-12-28T12:43:48;15.50;;;6.80;;
67352;SDS011;54238;52.278;21.056;2023-12-28T12:46:18;13.70;;;7.10;;
67352;SDS011;54238;52.278;21.056;2023-12-28T12:48:58;13.40;;;6.30;;
67352;SDS011;54238;52.278;21.056;2023-12-28T12:51:31;11.40;;;6.00;;
67352;SDS011;54238;52.278;21.056;2023-12-28T12:54:02;11.40;;;6.70;;
67352;SDS011;54238;52.278;21.056;2023-12-28T12:56:35;17.50;;;6.90;;
67352;SDS011;54238;52.278;21.056;2023-12-28T12:59:06;11.40;;;5.90;;
67352;SDS011;54238;52.278;21.056;2023-12-28T13:01:36;12.30;;;6.50;;
67352;SDS011;54238;52.278;21.056;2023-12-28T13:04:10;12.80;;;6.40;;
67352;SDS011;54238;52.278;21.056;2023-12-28T13:06:40;12.40;;;5.70;;
67352;SDS011;54238;52.278;21.056;2023-12-28T13:09:14;10.90;;;5.70;;
67352;SDS011;54238;52.278;21.056;2023-12-28T13:11:46;14.50;;;6.70;;
67352;SDS011;54238;52.278;21.056;2023-12-28T13:14:20;14.00;;;7.10;;
67352;SDS011;54238;52.278;21.056;2023-12-28T13:16:50;14.70;;;6.50;;
67352;SDS011;54238;52.278;21.056;2023-12-28T13:19:22;10.40;;;5.90;;
67352;SDS011;54238;52.278;21.056;2023-12-28T13:21:54;13.30;;;7.50;;
67352;SDS011;54238;52.278;21.056;2023-12-28T13:24:24;13.90;;;6.30;;
67352;SDS011;54238;52.278;21.056;2023-12-28T13:26:52;9.60;;;5.80;;
67352;SDS011;54238;52.278;21.056;2023-12-28T13:29:24;14.20;;;6.30;;
67352;SDS011;54238;52.278;21.056;2023-12-28T13:31:54;14.70;;;6.60;;
67352;SDS011;54238;52.278;21.056;2023-12-28T13:34:27;12.00;;;5.50;;
67352;SDS011;54238;52.278;21.056;2023-12-28T13:36:55;14.80;;;6.70;;
67352;SDS011;54238;52.278;21.056;2023-12-28T13:39:25;12.90;;;6.30;;
67352;SDS011;54238;52.278;21.056;2023-12-28T13:41:56;13.50;;;6.70;;
67352;SDS011;54238;52.278;21.056;2023-12-28T13:44:25;8.30;;;5.00;;
67352;SDS011;54238;52.278;21.056;2023-12-28T13:46:53;10.50;;;5.60;;
67352;SDS011;54238;52.278;21.056;2023-12-28T13:49:23;14.00;;;6.40;;
67352;SDS011;54238;52.278;21.056;2023-12-28T13:51:55;11.90;;;6.10;;
67352;SDS011;54238;52.278;21.056;2023-12-28T13:54:25;10.50;;;6.00;;
67352;SDS011;54238;52.278;21.056;2023-12-28T13:56:53;12.50;;;6.50;;
67352;SDS011;54238;52.278;21.056;2023-12-28T13:59:28;14.00;;;6.80;;
67352;SDS011;54238;52.278;21.056;2023-12-28T14:01:59;13.00;;;5.90;;
67352;SDS011;54238;52.278;21.056;2023-12-28T14:04:27;17.00;;;7.30;;
67352;SDS011;54238;52.278;21.056;2023-12-28T14:06:58;11.90;;;6.10;;
67352;SDS011;54238;52.278;21.056;2023-12-28T14:09:25;12.40;;;6.50;;
67352;SDS011;54238;52.278;21.056;2023-12-28T14:11:59;13.00;;;7.00;;
67352;SDS011;54238;52.278;21.056;2023-12-28T14:14:29;13.80;;;6.90;;
67352;SDS011;54238;52.278;21.056;2023-12-28T14:17:02;14.60;;;6.90;;
67352;SDS011;54238;52.278;21.056;2023-12-28T14:19:32;10.00;;;6.00;;
67352;SDS011;54238;52.278;21.056;2023-12-28T14:22:00;11.90;;;6.30;;
67352;SDS011;54238;52.278;21.056;2023-12-28T14:24:30;13.50;;;6.50;;
67352;SDS011;54238;52.278;21.056;2023-12-28T14:27:00;12.10;;;6.50;;
67352;SDS011;54238;52.278;21.056;2023-12-28T14:29:29;12.60;;;6.70;;
67352;SDS011;54238;52.278;21.056;2023-12-28T14:31:59;9.60;;;5.50;;
67352;SDS011;54238;52.278;21.056;2023-12-28T14:34:29;12.00;;;5.90;;
67352;SDS011;54238;52.278;21.056;2023-12-28T14:36:59;12.10;;;5.50;;
67352;SDS011;54238;52.278;21.056;2023-12-28T14:39:29;9.80;;;5.50;;
67352;SDS011;54238;52.278;21.056;2023-12-28T14:42:01;11.80;;;5.10;;